ADDS METAR Data INFO
IDs: Format: Raw Decoded Include TAF

Data at: 1616 UTC 25 Apr 2018

KDWX 251555Z AUTO 24003KT 10SM CLR 04/M06 A3041 RMK AO2 T00391057
KDWX 251535Z AUTO 26004KT 10SM CLR 03/M06 A3041 RMK AO2 T00261061
KDWX 251515Z AUTO 26004KT 10SM CLR 02/M06 A3042 RMK AO2 T00151062
KDWX 251455Z AUTO 24003KT 10SM CLR 01/M06 A3042 RMK AO2 T00091061
KDWX 251435Z AUTO 16004KT 10SM CLR 00/M06 A3043 RMK AO2 T00031065
KDWX 251415Z AUTO 10005KT 10SM CLR 00/M06 A3042 RMK AO2 T10011064
KDWX 251355Z AUTO 09007KT 10SM CLR M01/M06 A3041 RMK AO2 T10121065
KDWX 251335Z AUTO 09005KT 10SM CLR M03/M07 A3042 RMK AO2 T10271069
KDWX 251315Z AUTO 00000KT 10SM CLR M05/M08 A3042 RMK AO2 T10531077
KDWX 251255Z AUTO 00000KT 10SM CLR M07/M09 A3042 RMK AO2 T10701090
KDWX 251235Z AUTO 00000KT 10SM CLR M07/M09 A3042 RMK AO2 T10741095
KDWX 251215Z AUTO 00000KT 10SM CLR M08/M10 A3042 RMK AO2 T10811099
KDWX 251155Z AUTO 05003KT 10SM CLR M08/M10 A3042 RMK AO2 T10831099 10205 21102
KDWX 251135Z AUTO 00000KT 10SM CLR M08/M10 A3044 RMK AO2 T10771097
KDWX 251115Z AUTO 00000KT 10SM CLR M06/M09 A3043 RMK AO2 T10651090
KDWX 251055Z AUTO 00000KT 10SM CLR M06/M09 A3043 RMK AO2 T10641089
KDWX 251035Z AUTO 00000KT 10SM CLR M06/M09 A3043 RMK AO2 T10641088
KDWX 251015Z AUTO 00000KT 10SM CLR M06/M08 A3042 RMK AO2 T10611083
KDWX 250955Z AUTO 00000KT 10SM CLR M06/M08 A3042 RMK AO2 T10591083
KDWX 250935Z AUTO 00000KT 10SM CLR M06/M08 A3042 RMK AO2 T10561084
KDWX 250915Z AUTO 08003KT 10SM CLR M05/M08 A3042 RMK AO2 T10511082
KDWX 250855Z AUTO 00000KT 10SM CLR M05/M08 A3042 RMK AO2 T10501082
KDWX 250835Z AUTO 00000KT 10SM CLR M05/M08 A3042 RMK AO2 T10461079
KDWX 250815Z AUTO 00000KT 10SM CLR M04/M08 A3042 RMK AO2 T10451080
KDWX 250755Z AUTO 00000KT 10SM CLR M04/M08 A3043 RMK AO2 T10441080
KDWX 250735Z AUTO 08004KT 10SM CLR M04/M08 A3044 RMK AO2 T10421080
KDWX 250715Z AUTO 08003KT 10SM CLR M03/M08 A3044 RMK AO2 T10351077
KDWX 250655Z AUTO 05004KT 10SM CLR M03/M07 A3044 RMK AO2 T10301075 402051102
KDWX 250635Z AUTO 00000KT 10SM CLR M03/M07 A3044 RMK AO2 T10281075
KDWX 250615Z AUTO 00000KT 10SM CLR M02/M07 A3043 RMK AO2 T10181074
KDWX 250555Z AUTO 00000KT 10SM CLR M01/M07 A3042 RMK AO2 T10081075 10205 21102
KDWX 250455Z AUTO 03011KT 10SM CLR 00/M07 A3043 RMK AO2 T10021072
KDWX 250435Z AUTO 03012KT 10SM CLR 00/M07 A3043 RMK AO2 T00011072
KDWX 250415Z AUTO 04008G16KT 10SM CLR 01/M07 A3043 RMK AO2 T00061072
KDWX 250355Z AUTO 04016KT 10SM CLR 01/M07 A3042 RMK AO2 T00091074
KDWX 250335Z AUTO 02016KT 10SM CLR 01/M07 A3042 RMK AO2 T00101075
KDWX 250315Z AUTO 02017KT 10SM CLR 01/M07 A3041 RMK AO2 T00111075
KDWX 250255Z AUTO 35011KT 10SM CLR 01/M07 A3041 RMK AO2 T00131073
KDWX 250235Z AUTO 36012G18KT 10SM CLR 02/M07 A3040 RMK AO2 T00201073
KDWX 250215Z AUTO 02015G20KT 10SM CLR 03/M07 A3038 RMK AO2 T00251073
KDWX 250155Z AUTO 02015G22KT 10SM CLR 03/M07 A3038 RMK AO2 T00341073
KDWX 250135Z AUTO 02014G22KT 10SM CLR 05/M08 A3038 RMK AO2 T00451077
KDWX 250115Z AUTO 02018G22KT 10SM CLR 05/M07 A3036 RMK AO2 T00521075
KDWX 250055Z AUTO 02016G21KT 10SM CLR 06/M07 A3036 RMK AO2 T00571074
KDWX 250035Z AUTO 03019G24KT 10SM CLR 06/M07 A3036 RMK AO2 T00621075
KDWX 250015Z AUTO 03021G24KT 10SM CLR 07/M08 A3036 RMK AO2 T00671076
KDWX 242355Z AUTO 02018G27KT 10SM CLR 07/M07 A3036 RMK AO2 T00721075 10205 21102
KDWX 242335Z AUTO 01020G26KT 10SM CLR 08/M07 A3036 RMK AO2 T00751074
KDWX 242315Z AUTO 01021G24KT 10SM CLR 08/M07 A3036 RMK AO2 T00781071
KDWX 242255Z AUTO 36019G24KT 10SM CLR 08/M07 A3035 RMK AO2 T00831069
KDWX 242235Z AUTO 02017G27KT 10SM CLR 09/M07 A3035 RMK AO2 T00881071
KDWX 242215Z AUTO 02019G26KT 10SM CLR 09/M07 A3034 RMK AO2 T00911069
KDWX 242155Z AUTO 03019G25KT 10SM CLR 10/M06 A3034 RMK AO2 T00961064
KDWX 242135Z AUTO 02016G22KT 10SM CLR 10/M07 A3034 RMK AO2 T00951069
KDWX 242115Z AUTO 01016G24KT 10SM CLR 10/M07 A3034 RMK AO2 T00971071
KDWX 242055Z AUTO 36016G24KT 10SM CLR 10/M07 A3034 RMK AO2 T01001070
KDWX 242035Z AUTO 35014G22KT 10SM CLR 10/M07 A3034 RMK AO2 T00991067
KDWX 242015Z AUTO 36013G22KT 10SM CLR 10/M07 A3034 RMK AO2 T00971068
KDWX 241955Z AUTO 03006KT 10SM CLR 09/M07 A3034 RMK AO2 T00941066
KDWX 241935Z AUTO 03008G14KT 020V110 10SM CLR 09/M07 A3035 RMK AO2 T00911067
KDWX 241915Z AUTO 03013G17KT 10SM CLR 09/M06 A3035 RMK AO2 T00871065
KDWX 241855Z AUTO 02013G19KT 10SM CLR 08/M06 A3036 RMK AO2 T00831061
KDWX 241835Z AUTO 02015G21KT 10SM CLR 08/M06 A3036 RMK AO2 T00791061
KDWX 241815Z AUTO 02015G20KT 10SM CLR 08/M06 A3037 RMK AO2 T00771060
KDWX 241755Z AUTO 01015G22KT 10SM CLR 07/M06 A3037 RMK AO2 T00741062 10205 21102
KDWX 241735Z AUTO 01014G20KT 10SM CLR 07/M06 A3038 RMK AO2 T00731056
KDWX 241715Z AUTO 01015G20KT 10SM CLR 07/M05 A3038 RMK AO2 T00711054
KDWX 241655Z AUTO 02013G24KT 10SM CLR 07/M05 A3038 RMK AO2 T00681052
KDWX 241635Z AUTO 36013G21KT 10SM CLR 07/M05 A3037 RMK AO2 T00661051
KDWX 241615Z AUTO 03008G14KT 10SM CLR 06/M06 A3037 RMK AO2 T00611056
KDWX 241555Z AUTO 01011KT 10SM CLR 06/M05 A3037 RMK AO2 T00561050
KDWX 241535Z AUTO 02015G18KT 10SM CLR 05/M05 A3038 RMK AO2 T00491049
KDWX 241515Z AUTO 03015G20KT 10SM CLR 05/M05 A3038 RMK AO2 T00471046
KDWX 241455Z AUTO 02013KT 10SM CLR 04/M04 A3038 RMK AO2 T00411042
KDWX 241435Z AUTO 04013KT 10SM CLR 03/M04 A3038 RMK AO2 T00331042
KDWX 241415Z AUTO 03017KT 10SM CLR 02/M04 A3038 RMK AO2 T00231042
KDWX 241355Z AUTO 03015G20KT 10SM SCT090 01/M04 A3036 RMK AO2 T00141043
KDWX 241335Z AUTO 05013G17KT 10SM OVC090 01/M04 A3036 RMK AO2 T00061043
KDWX 241315Z AUTO 04015G20KT 10SM OVC090 01/M04 A3036 RMK AO2 T00051043
KDWX 241255Z AUTO 04016G20KT 10SM OVC090 01/M04 A3035 RMK AO2 T00051045
KDWX 241235Z AUTO 04015G21KT 10SM OVC080 00/M04 A3033 RMK AO2 T00011045
KDWX 241215Z AUTO 03012G17KT 10SM BKN080 00/M04 A3033 RMK AO2 T10021044
KDWX 241155Z AUTO 01003KT 10SM CLR 00/M04 A3033 RMK AO2 T00001042 10205 21102
KDWX 241135Z AUTO 01007KT 10SM CLR 00/M04 A3032 RMK AO2 T10021040
KDWX 241115Z AUTO 02011KT 10SM CLR 00/M04 A3032 RMK AO2 T10011039
KDWX 241055Z AUTO 36006KT 10SM CLR 00/M03 A3032 RMK AO2 T10011034
KDWX 241035Z AUTO 00000KT 10SM CLR 00/M03 A3032 RMK AO2 T10041031
KDWX 241015Z AUTO 00000KT 10SM CLR M01/M03 A3031 RMK AO2 T10071031
KDWX 240955Z AUTO 00000KT 10SM CLR 01/M03 A3030 RMK AO2 T00071035
KDWX 240935Z AUTO 02005KT 10SM CLR 01/M03 A3030 RMK AO2 T00111034
KDWX 240915Z AUTO 00000KT 10SM CLR 01/M03 A3029 RMK AO2 T00101032
KDWX 240855Z AUTO 00000KT 10SM CLR 01/M03 A3029 RMK AO2 T00081031
KDWX 240835Z AUTO 36005KT 10SM CLR 01/M03 A3030 RMK AO2 T00131030
KDWX 240815Z AUTO 01007KT 10SM CLR 02/M03 A3029 RMK AO2 T00191030
KDWX 240755Z AUTO 02014G18KT 10SM CLR 02/M03 A3029 RMK AO2 T00221027
KDWX 240735Z AUTO 02008KT 10SM CLR 02/M03 A3029 RMK AO2 T00221027
KDWX 240715Z AUTO 04007KT 10SM CLR 02/M03 A3028 RMK AO2 LTG DSNT E AND SE T00241026
KDWX 240655Z AUTO 03010KT 10SM CLR 03/M02 A3028 RMK AO2 T00251025 402051102
KDWX 240635Z AUTO 04013G20KT 10SM SCT100 03/M02 A3028 RMK AO2 T00271023
KDWX 240615Z AUTO 03017G22KT 10SM BKN100 03/M02 A3028 RMK AO2 T00331018
KDWX 240555Z AUTO 02015G20KT 10SM BKN100 04/M01 A3027 RMK AO2 T00381015 10205 21102
KDWX 240535Z AUTO 02012G18KT 10SM BKN110 04/M01 A3027 RMK AO2 T00401011
KDWX 240515Z AUTO 03015KT 10SM SCT100 04/M01 A3026 RMK AO2 T00441009
KDWX 240455Z AUTO 03016KT 10SM SCT100 05/00 A3026 RMK AO2 T00491005
KDWX 240435Z AUTO 02015KT 10SM SCT100 06/00 A3026 RMK AO2 T00561001